sensor_id;sensor_type;location;lat;lon;timestamp;P1;durP1;ratioP1;P2;durP2;ratioP2
69716;SDS011;67420;46.144;19.666;2023-12-07T00:01:59;6.75;;;5.80;;
69716;SDS011;67420;46.144;19.666;2023-12-07T00:12:01;6.78;;;5.85;;
69716;SDS011;67420;46.144;19.666;2023-12-07T00:22:03;6.10;;;5.03;;
69716;SDS011;67420;46.144;19.666;2023-12-07T00:32:06;5.35;;;4.85;;
69716;SDS011;67420;46.144;19.666;2023-12-07T00:42:09;5.85;;;4.63;;
69716;SDS011;67420;46.144;19.666;2023-12-07T00:52:11;4.78;;;4.13;;
69716;SDS011;67420;46.144;19.666;2023-12-07T01:02:14;4.20;;;3.55;;
69716;SDS011;67420;46.144;19.666;2023-12-07T01:12:16;4.22;;;3.65;;
69716;SDS011;67420;46.144;19.666;2023-12-07T01:22:18;3.97;;;3.58;;
69716;SDS011;67420;46.144;19.666;2023-12-07T01:32:20;3.47;;;3.15;;
69716;SDS011;67420;46.144;19.666;2023-12-07T01:42:22;5.15;;;3.30;;
69716;SDS011;67420;46.144;19.666;2023-12-07T01:52:25;3.40;;;3.00;;
69716;SDS011;67420;46.144;19.666;2023-12-07T02:02:31;2.83;;;2.55;;
69716;SDS011;67420;46.144;19.666;2023-12-07T02:12:33;2.70;;;2.50;;
69716;SDS011;67420;46.144;19.666;2023-12-07T02:22:54;2.53;;;2.33;;
69716;SDS011;67420;46.144;19.666;2023-12-07T02:33:00;2.25;;;2.05;;
69716;SDS011;67420;46.144;19.666;2023-12-07T02:43:04;2.10;;;1.90;;
69716;SDS011;67420;46.144;19.666;2023-12-07T02:53:06;2.00;;;1.80;;
69716;SDS011;67420;46.144;19.666;2023-12-07T03:03:09;1.88;;;1.67;;
69716;SDS011;67420;46.144;19.666;2023-12-07T03:13:11;1.95;;;1.75;;
69716;SDS011;67420;46.144;19.666;2023-12-07T03:23:13;1.60;;;1.50;;
69716;SDS011;67420;46.144;19.666;2023-12-07T03:33:15;1.42;;;1.33;;
69716;SDS011;67420;46.144;19.666;2023-12-07T03:43:18;1.48;;;1.38;;
69716;SDS011;67420;46.144;19.666;2023-12-07T03:53:20;1.48;;;1.38;;
69716;SDS011;67420;46.144;19.666;2023-12-07T04:03:22;1.40;;;1.25;;
69716;SDS011;67420;46.144;19.666;2023-12-07T04:13:24;1.10;;;1.00;;
69716;SDS011;67420;46.144;19.666;2023-12-07T04:23:26;0.90;;;0.90;;
69716;SDS011;67420;46.144;19.666;2023-12-07T04:33:28;1.10;;;1.00;;
69716;SDS011;67420;46.144;19.666;2023-12-07T04:43:32;0.85;;;0.85;;
69716;SDS011;67420;46.144;19.666;2023-12-07T04:53:35;0.90;;;0.85;;
69716;SDS011;67420;46.144;19.666;2023-12-07T05:03:37;0.95;;;0.88;;
69716;SDS011;67420;46.144;19.666;2023-12-07T05:13:39;1.40;;;1.30;;
69716;SDS011;67420;46.144;19.666;2023-12-07T05:23:41;1.42;;;1.30;;
69716;SDS011;67420;46.144;19.666;2023-12-07T05:33:43;1.30;;;1.20;;
69716;SDS011;67420;46.144;19.666;2023-12-07T05:43:45;2.28;;;1.17;;
69716;SDS011;67420;46.144;19.666;2023-12-07T05:53:47;1.20;;;1.10;;
69716;SDS011;67420;46.144;19.666;2023-12-07T06:03:51;1.77;;;1.45;;
69716;SDS011;67420;46.144;19.666;2023-12-07T06:13:52;1.70;;;1.60;;
69716;SDS011;67420;46.144;19.666;2023-12-07T06:23:56;1.75;;;1.65;;
69716;SDS011;67420;46.144;19.666;2023-12-07T06:33:58;1.95;;;1.75;;
69716;SDS011;67420;46.144;19.666;2023-12-07T06:44:02;1.95;;;1.77;;
69716;SDS011;67420;46.144;19.666;2023-12-07T06:54:04;2.28;;;2.08;;
69716;SDS011;67420;46.144;19.666;2023-12-07T07:04:06;2.30;;;2.10;;
69716;SDS011;67420;46.144;19.666;2023-12-07T07:14:08;3.38;;;2.20;;
69716;SDS011;67420;46.144;19.666;2023-12-07T07:24:10;5.40;;;2.35;;
69716;SDS011;67420;46.144;19.666;2023-12-07T07:34:12;4.70;;;2.13;;
69716;SDS011;67420;46.144;19.666;2023-12-07T07:44:14;2.45;;;2.10;;
69716;SDS011;67420;46.144;19.666;2023-12-07T07:54:16;6.43;;;2.10;;
69716;SDS011;67420;46.144;19.666;2023-12-07T08:04:19;2.80;;;2.40;;
69716;SDS011;67420;46.144;19.666;2023-12-07T08:14:21;3.97;;;2.20;;
69716;SDS011;67420;46.144;19.666;2023-12-07T08:24:23;2.30;;;2.10;;
69716;SDS011;67420;46.144;19.666;2023-12-07T08:34:26;2.33;;;2.00;;
69716;SDS011;67420;46.144;19.666;2023-12-07T08:44:28;2.30;;;2.10;;
69716;SDS011;67420;46.144;19.666;2023-12-07T08:54:30;3.05;;;1.90;;
69716;SDS011;67420;46.144;19.666;2023-12-07T09:04:32;2.22;;;1.77;;
69716;SDS011;67420;46.144;19.666;2023-12-07T09:14:34;1.92;;;1.70;;
69716;SDS011;67420;46.144;19.666;2023-12-07T09:24:39;2.10;;;1.90;;
69716;SDS011;67420;46.144;19.666;2023-12-07T09:34:41;1.90;;;1.70;;
69716;SDS011;67420;46.144;19.666;2023-12-07T09:44:43;1.70;;;1.60;;
69716;SDS011;67420;46.144;19.666;2023-12-07T09:54:45;1.77;;;1.60;;
69716;SDS011;67420;46.144;19.666;2023-12-07T10:04:47;1.70;;;1.60;;
69716;SDS011;67420;46.144;19.666;2023-12-07T10:14:50;1.52;;;1.40;;
69716;SDS011;67420;46.144;19.666;2023-12-07T10:24:52;1.67;;;1.58;;
69716;SDS011;67420;46.144;19.666;2023-12-07T10:34:54;1.75;;;1.65;;
69716;SDS011;67420;46.144;19.666;2023-12-07T10:45:01;1.55;;;1.45;;
69716;SDS011;67420;46.144;19.666;2023-12-07T10:55:06;3.70;;;1.67;;
69716;SDS011;67420;46.144;19.666;2023-12-07T11:05:09;1.70;;;1.60;;
69716;SDS011;67420;46.144;19.666;2023-12-07T11:15:12;1.98;;;1.50;;
69716;SDS011;67420;46.144;19.666;2023-12-07T11:25:15;1.60;;;1.50;;
69716;SDS011;67420;46.144;19.666;2023-12-07T11:35:17;1.70;;;1.60;;
69716;SDS011;67420;46.144;19.666;2023-12-07T11:55:41;1.65;;;1.55;;
69716;SDS011;67420;46.144;19.666;2023-12-07T12:05:43;1.60;;;1.50;;
69716;SDS011;67420;46.144;19.666;2023-12-07T12:15:46;1.60;;;1.30;;
69716;SDS011;67420;46.144;19.666;2023-12-07T12:25:49;1.50;;;1.40;;
69716;SDS011;67420;46.144;19.666;2023-12-07T12:36:01;1.30;;;1.20;;
69716;SDS011;67420;46.144;19.666;2023-12-07T12:46:05;1.60;;;1.50;;
69716;SDS011;67420;46.144;19.666;2023-12-07T12:56:08;1.65;;;1.55;;
69716;SDS011;67420;46.144;19.666;2023-12-07T13:06:10;1.45;;;1.35;;
69716;SDS011;67420;46.144;19.666;2023-12-07T13:16:12;1.48;;;1.38;;
69716;SDS011;67420;46.144;19.666;2023-12-07T13:26:14;1.70;;;1.60;;
69716;SDS011;67420;46.144;19.666;2023-12-07T13:36:16;3.17;;;1.85;;
69716;SDS011;67420;46.144;19.666;2023-12-07T13:46:22;1.92;;;1.75;;
69716;SDS011;67420;46.144;19.666;2023-12-07T13:56:25;1.77;;;1.67;;
69716;SDS011;67420;46.144;19.666;2023-12-07T14:06:27;1.80;;;1.50;;
69716;SDS011;67420;46.144;19.666;2023-12-07T14:16:30;1.83;;;1.73;;
69716;SDS011;67420;46.144;19.666;2023-12-07T14:26:52;2.40;;;1.85;;
69716;SDS011;67420;46.144;19.666;2023-12-07T14:36:55;2.08;;;1.85;;
69716;SDS011;67420;46.144;19.666;2023-12-07T14:46:57;2.35;;;2.03;;
69716;SDS011;67420;46.144;19.666;2023-12-07T14:56:59;2.08;;;1.90;;
69716;SDS011;67420;46.144;19.666;2023-12-07T15:07:04;2.40;;;2.20;;
69716;SDS011;67420;46.144;19.666;2023-12-07T15:17:06;3.03;;;2.53;;
69716;SDS011;67420;46.144;19.666;2023-12-07T15:27:10;2.75;;;2.55;;
69716;SDS011;67420;46.144;19.666;2023-12-07T15:37:12;2.60;;;2.40;;
69716;SDS011;67420;46.144;19.666;2023-12-07T15:47:15;5.72;;;2.90;;
69716;SDS011;67420;46.144;19.666;2023-12-07T15:57:17;3.42;;;3.00;;
69716;SDS011;67420;46.144;19.666;2023-12-07T16:07:19;3.67;;;3.33;;
69716;SDS011;67420;46.144;19.666;2023-12-07T16:17:21;4.00;;;3.05;;
69716;SDS011;67420;46.144;19.666;2023-12-07T16:27:23;3.10;;;2.78;;
69716;SDS011;67420;46.144;19.666;2023-12-07T16:37:25;3.60;;;3.30;;
69716;SDS011;67420;46.144;19.666;2023-12-07T16:47:28;3.88;;;3.47;;
69716;SDS011;67420;46.144;19.666;2023-12-07T16:57:30;4.57;;;4.00;;
69716;SDS011;67420;46.144;19.666;2023-12-07T17:07:34;6.32;;;4.38;;
69716;SDS011;67420;46.144;19.666;2023-12-07T17:17:36;4.60;;;4.13;;
69716;SDS011;67420;46.144;19.666;2023-12-07T17:27:40;5.00;;;3.92;;
69716;SDS011;67420;46.144;19.666;2023-12-07T17:37:41;4.22;;;3.72;;
69716;SDS011;67420;46.144;19.666;2023-12-07T17:47:43;5.20;;;4.10;;
69716;SDS011;67420;46.144;19.666;2023-12-07T17:57:47;6.88;;;4.32;;
69716;SDS011;67420;46.144;19.666;2023-12-07T18:07:51;4.78;;;4.20;;
69716;SDS011;67420;46.144;19.666;2023-12-07T18:17:52;7.25;;;4.20;;
69716;SDS011;67420;46.144;19.666;2023-12-07T18:27:54;6.55;;;3.90;;
69716;SDS011;67420;46.144;19.666;2023-12-07T18:37:56;5.03;;;4.40;;
69716;SDS011;67420;46.144;19.666;2023-12-07T18:47:58;4.93;;;4.40;;
69716;SDS011;67420;46.144;19.666;2023-12-07T18:58:00;4.95;;;4.47;;
69716;SDS011;67420;46.144;19.666;2023-12-07T19:08:02;5.32;;;4.70;;
69716;SDS011;67420;46.144;19.666;2023-12-07T19:18:04;6.00;;;4.80;;
69716;SDS011;67420;46.144;19.666;2023-12-07T19:28:06;5.40;;;4.70;;
69716;SDS011;67420;46.144;19.666;2023-12-07T19:38:08;6.10;;;4.85;;
69716;SDS011;67420;46.144;19.666;2023-12-07T19:48:10;6.38;;;4.88;;
69716;SDS011;67420;46.144;19.666;2023-12-07T19:58:13;5.95;;;5.13;;
69716;SDS011;67420;46.144;19.666;2023-12-07T20:08:15;5.47;;;4.80;;
69716;SDS011;67420;46.144;19.666;2023-12-07T20:18:18;5.68;;;4.90;;
69716;SDS011;67420;46.144;19.666;2023-12-07T20:28:21;6.07;;;5.10;;
69716;SDS011;67420;46.144;19.666;2023-12-07T20:38:23;5.60;;;4.60;;
69716;SDS011;67420;46.144;19.666;2023-12-07T20:48:25;5.43;;;4.60;;
69716;SDS011;67420;46.144;19.666;2023-12-07T20:58:27;5.43;;;4.78;;
69716;SDS011;67420;46.144;19.666;2023-12-07T21:08:33;5.35;;;4.72;;
69716;SDS011;67420;46.144;19.666;2023-12-07T21:18:35;6.05;;;4.43;;
69716;SDS011;67420;46.144;19.666;2023-12-07T21:28:38;9.50;;;5.20;;
69716;SDS011;67420;46.144;19.666;2023-12-07T21:38:41;10.70;;;5.10;;
69716;SDS011;67420;46.144;19.666;2023-12-07T21:48:44;12.18;;;5.25;;
69716;SDS011;67420;46.144;19.666;2023-12-07T21:58:46;10.45;;;6.25;;
69716;SDS011;67420;46.144;19.666;2023-12-07T22:08:49;8.85;;;5.47;;
69716;SDS011;67420;46.144;19.666;2023-12-07T22:18:50;9.55;;;5.80;;
69716;SDS011;67420;46.144;19.666;2023-12-07T22:28:53;7.07;;;5.32;;
69716;SDS011;67420;46.144;19.666;2023-12-07T22:38:55;9.57;;;5.25;;
69716;SDS011;67420;46.144;19.666;2023-12-07T22:48:59;5.47;;;4.88;;
69716;SDS011;67420;46.144;19.666;2023-12-07T22:59:01;5.88;;;4.90;;
69716;SDS011;67420;46.144;19.666;2023-12-07T23:09:04;5.35;;;4.22;;
69716;SDS011;67420;46.144;19.666;2023-12-07T23:19:05;5.22;;;4.43;;
69716;SDS011;67420;46.144;19.666;2023-12-07T23:29:08;4.75;;;3.95;;
69716;SDS011;67420;46.144;19.666;2023-12-07T23:39:11;4.95;;;4.10;;
69716;SDS011;67420;46.144;19.666;2023-12-07T23:49:13;4.72;;;4.10;;
69716;SDS011;67420;46.144;19.666;2023-12-07T23:59:15;4.97;;;4.38;;
